sensor_id;sensor_type;location;lat;lon;timestamp;pressure;altitude;pressure_sealevel;temperature;humidity
77263;BME280;66373;52.334;4.806;2023-12-29T00:01:04;100475.06;;;16.04;60.25
77263;BME280;66373;52.334;4.806;2023-12-29T00:03:32;100476.00;;;16.00;60.36
77263;BME280;66373;52.334;4.806;2023-12-29T00:06:02;100465.63;;;16.00;60.64
77263;BME280;66373;52.334;4.806;2023-12-29T00:08:29;100463.84;;;16.02;60.39
77263;BME280;66373;52.334;4.806;2023-12-29T00:10:57;100450.06;;;16.00;60.29
77263;BME280;66373;52.334;4.806;2023-12-29T00:13:24;100450.94;;;15.99;60.44
77263;BME280;66373;52.334;4.806;2023-12-29T00:15:51;100450.09;;;15.98;60.37
77263;BME280;66373;52.334;4.806;2023-12-29T00:18:21;100449.25;;;15.96;60.31
77263;BME280;66373;52.334;4.806;2023-12-29T00:20:48;100433.75;;;15.93;60.34
77263;BME280;66373;52.334;4.806;2023-12-29T00:23:16;100436.31;;;15.94;60.25
77263;BME280;66373;52.334;4.806;2023-12-29T00:25:43;100441.50;;;15.94;60.32
77263;BME280;66373;52.334;4.806;2023-12-29T00:28:10;100435.47;;;15.94;60.34
77263;BME280;66373;52.334;4.806;2023-12-29T00:30:38;100421.63;;;15.93;60.27
77263;BME280;66373;52.334;4.806;2023-12-29T00:33:06;100420.75;;;15.94;60.33
77263;BME280;66373;52.334;4.806;2023-12-29T00:35:36;100411.22;;;15.95;60.36
77263;BME280;66373;52.334;4.806;2023-12-29T00:38:04;100415.53;;;15.96;60.29
77263;BME280;66373;52.334;4.806;2023-12-29T00:40:31;100412.03;;;15.99;60.29
77263;BME280;66373;52.334;4.806;2023-12-29T00:43:00;100418.13;;;15.96;60.47
77263;BME280;66373;52.334;4.806;2023-12-29T00:45:27;100408.53;;;16.01;60.53
77263;BME280;66373;52.334;4.806;2023-12-29T00:47:58;100416.31;;;16.01;60.40
77263;BME280;66373;52.334;4.806;2023-12-29T00:50:25;100419.69;;;16.05;60.27
77263;BME280;66373;52.334;4.806;2023-12-29T00:52:54;100414.47;;;16.06;60.25
77263;BME280;66373;52.334;4.806;2023-12-29T00:55:21;100411.94;;;16.03;60.30
77263;BME280;66373;52.334;4.806;2023-12-29T00:57:49;100410.16;;;16.07;60.16
77263;BME280;66373;52.334;4.806;2023-12-29T01:00:16;100411.84;;;16.08;60.16
77263;BME280;66373;52.334;4.806;2023-12-29T01:02:43;100411.81;;;16.11;60.32
77263;BME280;66373;52.334;4.806;2023-12-29T01:05:15;100391.16;;;16.05;60.14
77263;BME280;66373;52.334;4.806;2023-12-29T01:07:43;100403.09;;;16.12;60.11
77263;BME280;66373;52.334;4.806;2023-12-29T01:10:12;100397.03;;;16.13;60.18
77263;BME280;66373;52.334;4.806;2023-12-29T01:12:39;100397.84;;;16.15;60.00
77263;BME280;66373;52.334;4.806;2023-12-29T01:15:07;100398.69;;;16.17;60.06
77263;BME280;66373;52.334;4.806;2023-12-29T01:17:34;100395.19;;;16.18;60.09
77263;BME280;66373;52.334;4.806;2023-12-29T01:20:01;100391.81;;;16.14;60.07
77263;BME280;66373;52.334;4.806;2023-12-29T01:22:30;100396.03;;;16.20;60.09
77263;BME280;66373;52.334;4.806;2023-12-29T01:24:58;100390.84;;;16.20;59.96
77263;BME280;66373;52.334;4.806;2023-12-29T01:27:29;100403.81;;;16.20;60.07
77263;BME280;66373;52.334;4.806;2023-12-29T01:29:56;100364.34;;;16.06;59.97
77263;BME280;66373;52.334;4.806;2023-12-29T01:32:24;100399.44;;;16.22;60.12
77263;BME280;66373;52.334;4.806;2023-12-29T01:34:52;100408.13;;;16.21;59.76
77263;BME280;66373;52.334;4.806;2023-12-29T01:37:19;100392.50;;;16.24;59.78
77263;BME280;66373;52.334;4.806;2023-12-29T01:39:46;100398.53;;;16.24;59.87
77263;BME280;66373;52.334;4.806;2023-12-29T01:42:13;100389.91;;;16.22;59.70
77263;BME280;66373;52.334;4.806;2023-12-29T01:44:42;100399.31;;;16.28;59.82
77263;BME280;66373;52.334;4.806;2023-12-29T01:47:12;100407.09;;;16.29;59.78
77263;BME280;66373;52.334;4.806;2023-12-29T01:49:43;100409.66;;;16.31;59.78
77263;BME280;66373;52.334;4.806;2023-12-29T01:52:11;100402.75;;;16.30;59.79
77263;BME280;66373;52.334;4.806;2023-12-29T01:54:39;100406.16;;;16.32;59.74
77263;BME280;66373;52.334;4.806;2023-12-29T01:57:08;100407.06;;;16.31;59.58
77263;BME280;66373;52.334;4.806;2023-12-29T01:59:36;100411.41;;;16.29;59.53
77263;BME280;66373;52.334;4.806;2023-12-29T02:02:07;100400.22;;;16.27;59.82
77263;BME280;66373;52.334;4.806;2023-12-29T02:04:34;100416.50;;;16.35;59.58
77263;BME280;66373;52.334;4.806;2023-12-29T02:07:04;100411.38;;;16.32;59.55
77263;BME280;66373;52.334;4.806;2023-12-29T02:09:32;100411.38;;;16.32;59.56
77263;BME280;66373;52.334;4.806;2023-12-29T02:12:00;100407.94;;;16.30;59.54
77263;BME280;66373;52.334;4.806;2023-12-29T02:14:27;100404.41;;;16.34;59.33
77263;BME280;66373;52.334;4.806;2023-12-29T02:17:00;100425.94;;;16.38;59.31
77263;BME280;66373;52.334;4.806;2023-12-29T02:19:39;100425.94;;;16.38;59.46
77263;BME280;66373;52.334;4.806;2023-12-29T02:22:07;100431.97;;;16.38;59.35
77263;BME280;66373;52.334;4.806;2023-12-29T02:24:35;100426.88;;;16.35;59.49
77263;BME280;66373;52.334;4.806;2023-12-29T02:27:11;100398.69;;;16.17;59.19
77263;BME280;66373;52.334;4.806;2023-12-29T02:29:44;100410.41;;;16.36;59.44
77263;BME280;66373;52.334;4.806;2023-12-29T02:32:16;100412.19;;;16.34;59.45
77263;BME280;66373;52.334;4.806;2023-12-29T02:34:47;100414.78;;;16.34;59.46
77263;BME280;66373;52.334;4.806;2023-12-29T02:37:16;100418.25;;;16.33;59.27
77263;BME280;66373;52.334;4.806;2023-12-29T02:39:44;100413.09;;;16.32;59.38
77263;BME280;66373;52.334;4.806;2023-12-29T02:42:13;100401.22;;;16.20;59.29
77263;BME280;66373;52.334;4.806;2023-12-29T02:44:40;100411.41;;;16.29;59.29
77263;BME280;66373;52.334;4.806;2023-12-29T02:47:07;100390.78;;;16.23;59.33
77263;BME280;66373;52.334;4.806;2023-12-29T02:49:35;100404.56;;;16.25;59.32
77263;BME280;66373;52.334;4.806;2023-12-29T02:52:03;100413.25;;;16.24;59.27
77263;BME280;66373;52.334;4.806;2023-12-29T02:54:30;100411.56;;;16.21;59.46
77263;BME280;66373;52.334;4.806;2023-12-29T02:56:57;100408.94;;;16.23;59.26
77263;BME280;66373;52.334;4.806;2023-12-29T02:59:26;100419.38;;;16.20;58.98
77263;BME280;66373;52.334;4.806;2023-12-29T03:01:53;100428.84;;;16.22;59.26
77263;BME280;66373;52.334;4.806;2023-12-29T03:04:21;100430.56;;;16.23;59.34
77263;BME280;66373;52.334;4.806;2023-12-29T03:06:48;100434.00;;;16.24;59.34
77263;BME280;66373;52.334;4.806;2023-12-29T03:09:15;100428.00;;;16.22;58.99
77263;BME280;66373;52.334;4.806;2023-12-29T03:11:42;100436.56;;;16.25;59.27
77263;BME280;66373;52.334;4.806;2023-12-29T03:14:09;100434.06;;;16.21;59.15
77263;BME280;66373;52.334;4.806;2023-12-29T03:16:38;100428.81;;;16.24;59.09
77263;BME280;66373;52.334;4.806;2023-12-29T03:19:05;100424.47;;;16.24;59.03
77263;BME280;66373;52.334;4.806;2023-12-29T03:21:33;100441.72;;;16.28;59.14
77263;BME280;66373;52.334;4.806;2023-12-29T03:24:00;100424.41;;;16.29;59.13
77263;BME280;66373;52.334;4.806;2023-12-29T03:26:28;100432.19;;;16.29;58.83
77263;BME280;66373;52.334;4.806;2023-12-29T03:28:55;100431.25;;;16.33;59.07
77263;BME280;66373;52.334;4.806;2023-12-29T03:31:22;100426.94;;;16.32;59.08
77263;BME280;66373;52.334;4.806;2023-12-29T03:33:51;100425.16;;;16.34;58.98
77263;BME280;66373;52.334;4.806;2023-12-29T03:36:18;100417.38;;;16.34;58.94
77263;BME280;66373;52.334;4.806;2023-12-29T03:38:46;100426.84;;;16.37;58.97
77263;BME280;66373;52.334;4.806;2023-12-29T03:41:13;100413.88;;;16.37;59.11
77263;BME280;66373;52.334;4.806;2023-12-29T03:43:40;100416.41;;;16.38;58.96
77263;BME280;66373;52.334;4.806;2023-12-29T03:46:15;100403.38;;;16.40;58.96
77263;BME280;66373;52.334;4.806;2023-12-29T03:48:43;100389.53;;;16.41;58.86
77263;BME280;66373;52.334;4.806;2023-12-29T03:51:12;100394.75;;;16.39;58.75
77263;BME280;66373;52.334;4.806;2023-12-29T03:53:39;100366.47;;;16.27;58.71
77263;BME280;66373;52.334;4.806;2023-12-29T03:56:14;100382.63;;;16.40;58.84
77263;BME280;66373;52.334;4.806;2023-12-29T03:58:42;100379.19;;;16.38;58.51
77263;BME280;66373;52.334;4.806;2023-12-29T04:01:10;100382.66;;;16.38;58.54
77263;BME280;66373;52.334;4.806;2023-12-29T04:03:37;100396.50;;;16.39;58.59
77263;BME280;66373;52.334;4.806;2023-12-29T04:06:05;100398.22;;;16.38;58.55
77263;BME280;66373;52.334;4.806;2023-12-29T04:08:34;100391.25;;;16.40;58.53
77263;BME280;66373;52.334;4.806;2023-12-29T04:11:02;100393.91;;;16.39;58.60
77263;BME280;66373;52.334;4.806;2023-12-29T04:13:30;100381.78;;;16.39;58.43
77263;BME280;66373;52.334;4.806;2023-12-29T04:15:57;100387.81;;;16.40;58.48
77263;BME280;66373;52.334;4.806;2023-12-29T04:18:25;100397.34;;;16.39;58.44
77263;BME280;66373;52.334;4.806;2023-12-29T04:20:52;100395.56;;;16.41;58.55
77263;BME280;66373;52.334;4.806;2023-12-29T04:23:19;100377.47;;;16.38;58.33
77263;BME280;66373;52.334;4.806;2023-12-29T04:25:48;100392.09;;;16.42;58.41
77263;BME280;66373;52.334;4.806;2023-12-29T04:28:15;100399.88;;;16.42;58.46
77263;BME280;66373;52.334;4.806;2023-12-29T04:30:42;100393.88;;;16.40;58.47
77263;BME280;66373;52.334;4.806;2023-12-29T04:33:09;100392.09;;;16.42;58.50
77263;BME280;66373;52.334;4.806;2023-12-29T04:35:36;100392.16;;;16.39;58.53
77263;BME280;66373;52.334;4.806;2023-12-29T04:38:04;100393.84;;;16.42;58.31
77263;BME280;66373;52.334;4.806;2023-12-29T04:40:33;100384.31;;;16.42;58.37
77263;BME280;66373;52.334;4.806;2023-12-29T04:43:02;100382.59;;;16.41;58.41
77263;BME280;66373;52.334;4.806;2023-12-29T04:45:30;100367.91;;;16.40;58.36
77263;BME280;66373;52.334;4.806;2023-12-29T04:47:57;100376.66;;;16.36;58.42
77263;BME280;66373;52.334;4.806;2023-12-29T04:50:24;100369.69;;;16.38;58.47
77263;BME280;66373;52.334;4.806;2023-12-29T04:52:51;100381.81;;;16.38;58.33
77263;BME280;66373;52.334;4.806;2023-12-29T04:55:18;100364.59;;;16.35;58.25
77263;BME280;66373;52.334;4.806;2023-12-29T04:57:46;100368.97;;;16.32;58.31
77263;BME280;66373;52.334;4.806;2023-12-29T05:00:15;100381.94;;;16.33;58.41
77263;BME280;66373;52.334;4.806;2023-12-29T05:02:42;100364.63;;;16.32;58.31
77263;BME280;66373;52.334;4.806;2023-12-29T05:05:09;100381.09;;;16.31;58.38
77263;BME280;66373;52.334;4.806;2023-12-29T05:07:36;100394.06;;;16.31;58.32
77263;BME280;66373;52.334;4.806;2023-12-29T05:10:04;100375.94;;;16.29;58.30
77263;BME280;66373;52.334;4.806;2023-12-29T05:12:32;100384.63;;;16.27;58.40
77263;BME280;66373;52.334;4.806;2023-12-29T05:14:59;100391.59;;;16.25;58.56
77263;BME280;66373;52.334;4.806;2023-12-29T05:17:27;100364.81;;;16.23;58.33
77263;BME280;66373;52.334;4.806;2023-12-29T05:19:54;100370.00;;;16.23;58.35
77263;BME280;66373;52.334;4.806;2023-12-29T05:22:22;100371.78;;;16.21;58.36
77263;BME280;66373;52.334;4.806;2023-12-29T05:24:49;100374.38;;;16.21;58.41
77263;BME280;66373;52.334;4.806;2023-12-29T05:27:16;100371.06;;;16.14;58.48
77263;BME280;66373;52.334;4.806;2023-12-29T05:29:43;100379.66;;;16.16;58.37
77263;BME280;66373;52.334;4.806;2023-12-29T05:32:10;100379.63;;;16.18;58.44
77263;BME280;66373;52.334;4.806;2023-12-29T05:34:39;100377.91;;;16.17;58.30
77263;BME280;66373;52.334;4.806;2023-12-29T05:37:06;100371.91;;;16.15;58.28
77263;BME280;66373;52.334;4.806;2023-12-29T05:39:33;100372.78;;;16.14;58.36
77263;BME280;66373;52.334;4.806;2023-12-29T05:42:00;100372.03;;;16.10;58.42
77263;BME280;66373;52.334;4.806;2023-12-29T05:44:27;100396.22;;;16.11;58.41
77263;BME280;66373;52.334;4.806;2023-12-29T05:46:54;100378.97;;;16.10;58.41
77263;BME280;66373;52.334;4.806;2023-12-29T05:49:24;100366.88;;;16.09;58.32
77263;BME280;66373;52.334;4.806;2023-12-29T05:51:53;100383.31;;;16.08;58.46
77263;BME280;66373;52.334;4.806;2023-12-29T05:54:20;100370.34;;;16.08;58.27
77263;BME280;66373;52.334;4.806;2023-12-29T05:56:47;100364.38;;;16.04;58.39
77263;BME280;66373;52.334;4.806;2023-12-29T05:59:14;100360.91;;;16.04;58.44
77263;BME280;66373;52.334;4.806;2023-12-29T06:01:41;100340.19;;;16.02;58.34
77263;BME280;66373;52.334;4.806;2023-12-29T06:04:08;100332.41;;;16.02;58.42
77263;BME280;66373;52.334;4.806;2023-12-29T06:06:35;100328.97;;;16.02;58.28
77263;BME280;66373;52.334;4.806;2023-12-29T06:09:04;100332.44;;;16.01;58.06
77263;BME280;66373;52.334;4.806;2023-12-29T06:11:31;100326.38;;;16.02;58.21
77263;BME280;66373;52.334;4.806;2023-12-29T06:13:59;100345.38;;;16.02;58.04
77263;BME280;66373;52.334;4.806;2023-12-29T06:16:26;100339.34;;;16.02;58.27
77263;BME280;66373;52.334;4.806;2023-12-29T06:18:55;100338.47;;;16.01;58.21
77263;BME280;66373;52.334;4.806;2023-12-29T06:21:22;100327.25;;;16.01;58.18
77263;BME280;66373;52.334;4.806;2023-12-29T06:23:49;100335.03;;;16.01;58.28
77263;BME280;66373;52.334;4.806;2023-12-29T06:26:19;100344.53;;;16.02;58.17
77263;BME280;66373;52.334;4.806;2023-12-29T06:28:48;100342.00;;;15.99;58.15
77263;BME280;66373;52.334;4.806;2023-12-29T06:31:17;100354.03;;;16.01;58.20
77263;BME280;66373;52.334;4.806;2023-12-29T06:33:44;100365.28;;;16.02;58.13
77263;BME280;66373;52.334;4.806;2023-12-29T06:36:12;100367.00;;;16.03;58.14
77263;BME280;66373;52.334;4.806;2023-12-29T06:38:39;100373.03;;;16.03;58.22
77263;BME280;66373;52.334;4.806;2023-12-29T06:41:06;100372.19;;;16.03;58.13
77263;BME280;66373;52.334;4.806;2023-12-29T06:43:35;100370.53;;;15.99;58.08
77263;BME280;66373;52.334;4.806;2023-12-29T06:46:02;100374.78;;;16.01;58.14
77263;BME280;66373;52.334;4.806;2023-12-29T06:48:30;100385.16;;;16.03;58.14
77263;BME280;66373;52.334;4.806;2023-12-29T06:50:57;100393.81;;;16.02;58.29
77263;BME280;66373;52.334;4.806;2023-12-29T06:53:24;100376.53;;;16.01;58.24
77263;BME280;66373;52.334;4.806;2023-12-29T06:55:51;100403.31;;;16.03;58.38
77263;BME280;66373;52.334;4.806;2023-12-29T06:58:18;100381.69;;;16.02;58.34
77263;BME280;66373;52.334;4.806;2023-12-29T07:00:47;100385.16;;;16.03;58.51
77263;BME280;66373;52.334;4.806;2023-12-29T07:03:14;100384.25;;;16.04;58.39
77263;BME280;66373;52.334;4.806;2023-12-29T07:05:41;100382.56;;;16.03;58.36
77263;BME280;66373;52.334;4.806;2023-12-29T07:08:08;100388.59;;;16.03;58.26
77263;BME280;66373;52.334;4.806;2023-12-29T07:10:35;100382.56;;;16.03;58.36
77263;BME280;66373;52.334;4.806;2023-12-29T07:13:03;100386.88;;;16.02;58.42
77263;BME280;66373;52.334;4.806;2023-12-29T07:15:30;100380.84;;;16.02;58.52
77263;BME280;66373;52.334;4.806;2023-12-29T07:17:58;100382.56;;;16.03;58.27
77263;BME280;66373;52.334;4.806;2023-12-29T07:20:25;100383.44;;;16.02;58.47
77263;BME280;66373;52.334;4.806;2023-12-29T07:22:52;100377.38;;;16.03;58.47
77263;BME280;66373;52.334;4.806;2023-12-29T07:25:20;100390.38;;;16.01;58.52
77263;BME280;66373;52.334;4.806;2023-12-29T07:27:47;100387.78;;;16.00;58.64
77263;BME280;66373;52.334;4.806;2023-12-29T07:30:15;100393.84;;;16.00;58.75
77263;BME280;66373;52.334;4.806;2023-12-29T07:32:42;100393.84;;;16.00;58.51
77263;BME280;66373;52.334;4.806;2023-12-29T07:35:10;100389.47;;;16.02;58.49
77263;BME280;66373;52.334;4.806;2023-12-29T07:37:41;100396.47;;;15.99;58.69
77263;BME280;66373;52.334;4.806;2023-12-29T07:40:10;100400.75;;;16.01;58.73
77263;BME280;66373;52.334;4.806;2023-12-29T07:42:38;100403.38;;;15.98;58.65
77263;BME280;66373;52.334;4.806;2023-12-29T07:45:07;100412.00;;;16.00;58.66
77263;BME280;66373;52.334;4.806;2023-12-29T07:47:35;100405.13;;;15.98;58.58
77263;BME280;66373;52.334;4.806;2023-12-29T07:50:02;100409.44;;;15.99;58.79
77263;BME280;66373;52.334;4.806;2023-12-29T07:52:31;100404.25;;;15.99;58.79
77263;BME280;66373;52.334;4.806;2023-12-29T07:54:58;100404.31;;;15.95;58.51
77263;BME280;66373;52.334;4.806;2023-12-29T07:57:25;100412.88;;;15.99;58.76
77263;BME280;66373;52.334;4.806;2023-12-29T07:59:53;100397.38;;;15.96;58.91
77263;BME280;66373;52.334;4.806;2023-12-29T08:02:20;100400.84;;;15.95;58.90
77263;BME280;66373;52.334;4.806;2023-12-29T08:04:47;100406.91;;;15.95;58.88
77263;BME280;66373;52.334;4.806;2023-12-29T08:07:14;100412.16;;;15.91;58.82
77263;BME280;66373;52.334;4.806;2023-12-29T08:09:43;100407.81;;;15.93;59.02
77263;BME280;66373;52.334;4.806;2023-12-29T08:12:11;100401.81;;;15.89;58.95
77263;BME280;66373;52.334;4.806;2023-12-29T08:14:39;100419.03;;;15.93;59.00
77263;BME280;66373;52.334;4.806;2023-12-29T08:17:06;100406.09;;;15.92;58.86
77263;BME280;66373;52.334;4.806;2023-12-29T08:19:34;100400.94;;;15.90;58.82
77263;BME280;66373;52.334;4.806;2023-12-29T08:22:02;100415.72;;;15.85;58.92
77263;BME280;66373;52.334;4.806;2023-12-29T08:24:29;100417.38;;;15.89;59.04
77263;BME280;66373;52.334;4.806;2023-12-29T08:26:58;100414.81;;;15.88;58.88
77263;BME280;66373;52.334;4.806;2023-12-29T08:29:25;100415.69;;;15.87;59.17
77263;BME280;66373;52.334;4.806;2023-12-29T08:31:52;100411.38;;;15.86;58.96
77263;BME280;66373;52.334;4.806;2023-12-29T08:34:19;100413.19;;;15.84;59.08
77263;BME280;66373;52.334;4.806;2023-12-29T08:36:47;100407.94;;;15.85;59.15
77263;BME280;66373;52.334;4.806;2023-12-29T08:39:14;100412.31;;;15.85;59.11
77263;BME280;66373;52.334;4.806;2023-12-29T08:41:42;100415.78;;;15.84;59.12
77263;BME280;66373;52.334;4.806;2023-12-29T08:44:10;100416.66;;;15.83;59.12
77263;BME280;66373;52.334;4.806;2023-12-29T08:46:37;100403.72;;;15.81;59.18
77263;BME280;66373;52.334;4.806;2023-12-29T08:49:05;100407.16;;;15.82;59.12
77263;BME280;66373;52.334;4.806;2023-12-29T08:51:32;100403.72;;;15.81;59.06
77263;BME280;66373;52.334;4.806;2023-12-29T08:54:00;100402.00;;;15.80;59.09
77263;BME280;66373;52.334;4.806;2023-12-29T08:56:28;100408.09;;;15.79;59.30
77263;BME280;66373;52.334;4.806;2023-12-29T08:58:56;100420.16;;;15.80;59.21
77263;BME280;66373;52.334;4.806;2023-12-29T09:01:24;100418.47;;;15.79;59.32
77263;BME280;66373;52.334;4.806;2023-12-29T09:03:50;100415.88;;;15.79;59.11
77263;BME280;66373;52.334;4.806;2023-12-29T09:06:18;100402.91;;;15.79;59.22
77263;BME280;66373;52.334;4.806;2023-12-29T09:08:46;100395.13;;;15.79;59.15
77263;BME280;66373;52.334;4.806;2023-12-29T09:11:13;100398.69;;;15.72;59.20
77263;BME280;66373;52.334;4.806;2023-12-29T09:13:40;100415.03;;;15.77;59.25
77263;BME280;66373;52.334;4.806;2023-12-29T09:16:08;100410.72;;;15.76;59.25
77263;BME280;66373;52.334;4.806;2023-12-29T09:18:37;100417.63;;;15.77;59.22
77263;BME280;66373;52.334;4.806;2023-12-29T09:21:04;100410.72;;;15.76;59.10
77263;BME280;66373;52.334;4.806;2023-12-29T09:23:31;100425.47;;;15.74;59.29
77263;BME280;66373;52.334;4.806;2023-12-29T09:25:59;100418.53;;;15.75;59.29
77263;BME280;66373;52.334;4.806;2023-12-29T09:28:27;100432.44;;;15.71;59.27
77263;BME280;66373;52.334;4.806;2023-12-29T09:30:54;100431.50;;;15.75;59.20
77263;BME280;66373;52.334;4.806;2023-12-29T09:33:21;100441.03;;;15.73;59.15
77263;BME280;66373;52.334;4.806;2023-12-29T09:35:51;100441.91;;;15.73;59.29
77263;BME280;66373;52.334;4.806;2023-12-29T09:38:18;100434.16;;;15.70;59.41
77263;BME280;66373;52.334;4.806;2023-12-29T09:40:46;100440.22;;;15.69;59.08
77263;BME280;66373;52.334;4.806;2023-12-29T09:43:15;100450.56;;;15.72;59.41
77263;BME280;66373;52.334;4.806;2023-12-29T09:45:43;100443.66;;;15.71;59.41
77263;BME280;66373;52.334;4.806;2023-12-29T09:48:15;100459.22;;;15.71;59.43
77263;BME280;66373;52.334;4.806;2023-12-29T09:50:45;100457.56;;;15.67;59.36
77263;BME280;66373;52.334;4.806;2023-12-29T09:53:14;100471.34;;;15.69;59.37
77263;BME280;66373;52.334;4.806;2023-12-29T09:55:43;100456.72;;;15.65;59.49
77263;BME280;66373;52.334;4.806;2023-12-29T09:58:12;100461.88;;;15.68;59.59
77263;BME280;66373;52.334;4.806;2023-12-29T10:00:40;100461.03;;;15.66;59.74
77263;BME280;66373;52.334;4.806;2023-12-29T10:03:08;100480.84;;;15.70;59.60
77263;BME280;66373;52.334;4.806;2023-12-29T10:05:36;100482.56;;;15.70;59.77
77263;BME280;66373;52.334;4.806;2023-12-29T10:08:05;100497.28;;;15.69;59.63
77263;BME280;66373;52.334;4.806;2023-12-29T10:10:36;100486.06;;;15.69;59.82
77263;BME280;66373;52.334;4.806;2023-12-29T10:13:06;100475.00;;;15.59;59.87
77263;BME280;66373;52.334;4.806;2023-12-29T10:15:40;100502.47;;;15.69;59.72
77263;BME280;66373;52.334;4.806;2023-12-29T10:18:14;100481.00;;;15.59;59.90
77263;BME280;66373;52.334;4.806;2023-12-29T10:20:48;100500.72;;;15.70;60.04
77263;BME280;66373;52.334;4.806;2023-12-29T10:23:19;100496.44;;;15.69;60.11
77263;BME280;66373;52.334;4.806;2023-12-29T10:25:49;100499.00;;;15.70;60.02
77263;BME280;66373;52.334;4.806;2023-12-29T10:28:17;100495.53;;;15.71;59.94
77263;BME280;66373;52.334;4.806;2023-12-29T10:30:45;100494.72;;;15.68;60.03
77263;BME280;66373;52.334;4.806;2023-12-29T10:33:19;100499.84;;;15.71;60.07
77263;BME280;66373;52.334;4.806;2023-12-29T10:35:56;100498.22;;;15.65;60.07
77263;BME280;66373;52.334;4.806;2023-12-29T10:38:24;100499.00;;;15.70;60.08
77263;BME280;66373;52.334;4.806;2023-12-29T10:40:53;100499.00;;;15.70;60.02
77263;BME280;66373;52.334;4.806;2023-12-29T10:43:22;100504.19;;;15.70;60.03
77263;BME280;66373;52.334;4.806;2023-12-29T10:45:49;100492.97;;;15.68;60.11
77263;BME280;66373;52.334;4.806;2023-12-29T10:48:21;100502.47;;;15.69;59.86
77263;BME280;66373;52.334;4.806;2023-12-29T10:50:49;100500.78;;;15.67;60.14
77263;BME280;66373;52.334;4.806;2023-12-29T10:53:17;100502.44;;;15.71;60.01
77263;BME280;66373;52.334;4.806;2023-12-29T10:55:44;100511.09;;;15.71;60.21
77263;BME280;66373;52.334;4.806;2023-12-29T10:58:15;100502.47;;;15.69;60.07
77263;BME280;66373;52.334;4.806;2023-12-29T11:00:43;100511.13;;;15.68;59.99
77263;BME280;66373;52.334;4.806;2023-12-29T11:03:15;100511.13;;;15.68;60.02
77263;BME280;66373;52.334;4.806;2023-12-29T11:05:42;100510.19;;;15.72;59.92
77263;BME280;66373;52.334;4.806;2023-12-29T11:08:15;100522.28;;;15.73;60.14
77263;BME280;66373;52.334;4.806;2023-12-29T11:10:43;100522.28;;;15.73;59.97
77263;BME280;66373;52.334;4.806;2023-12-29T11:13:12;100515.41;;;15.71;60.04
77263;BME280;66373;52.334;4.806;2023-12-29T11:15:42;100524.84;;;15.75;59.86
77263;BME280;66373;52.334;4.806;2023-12-29T11:18:13;100525.72;;;15.75;59.86
77263;BME280;66373;52.334;4.806;2023-12-29T11:20:41;100517.94;;;15.75;59.94
77263;BME280;66373;52.334;4.806;2023-12-29T11:23:09;100523.13;;;15.75;59.84
77263;BME280;66373;52.334;4.806;2023-12-29T11:25:39;100536.91;;;15.77;59.83
77263;BME280;66373;52.334;4.806;2023-12-29T11:28:09;100532.59;;;15.78;59.78
77263;BME280;66373;52.334;4.806;2023-12-29T11:30:39;100530.88;;;15.77;59.90
77263;BME280;66373;52.334;4.806;2023-12-29T11:33:11;100539.50;;;15.79;59.73
77263;BME280;66373;52.334;4.806;2023-12-29T11:35:43;100536.00;;;15.80;59.73
77263;BME280;66373;52.334;4.806;2023-12-29T11:38:29;100538.63;;;15.78;59.93
77263;BME280;66373;52.334;4.806;2023-12-29T11:41:05;100533.44;;;15.78;59.83
77263;BME280;66373;52.334;4.806;2023-12-29T11:43:36;100543.78;;;15.81;59.71
77263;BME280;66373;52.334;4.806;2023-12-29T11:46:05;100538.59;;;15.81;59.79
77263;BME280;66373;52.334;4.806;2023-12-29T11:48:54;100533.41;;;15.81;59.84
77263;BME280;66373;52.334;4.806;2023-12-29T11:51:32;100535.97;;;15.83;59.74
77263;BME280;66373;52.334;4.806;2023-12-29T11:54:00;100535.09;;;15.82;59.77
77263;BME280;66373;52.334;4.806;2023-12-29T11:56:33;100527.34;;;15.81;59.76
77263;BME280;66373;52.334;4.806;2023-12-29T11:59:16;100535.03;;;15.85;60.06
77263;BME280;66373;52.334;4.806;2023-12-29T12:01:46;100534.16;;;15.86;60.07
77263;BME280;66373;52.334;4.806;2023-12-29T12:04:35;100537.59;;;15.87;60.31
77263;BME280;66373;52.334;4.806;2023-12-29T12:07:03;100534.97;;;15.88;60.33
77263;BME280;66373;52.334;4.806;2023-12-29T12:09:32;100517.72;;;15.87;60.16
77263;BME280;66373;52.334;4.806;2023-12-29T12:12:01;100532.38;;;15.90;59.98
77263;BME280;66373;52.334;4.806;2023-12-29T12:14:50;100532.38;;;15.88;60.22
77263;BME280;66373;52.334;4.806;2023-12-29T12:17:29;100531.47;;;15.92;60.28
77263;BME280;66373;52.334;4.806;2023-12-29T12:19:58;100529.75;;;15.91;60.17
77263;BME280;66373;52.334;4.806;2023-12-29T12:22:27;100534.91;;;15.93;60.43
77263;BME280;66373;52.334;4.806;2023-12-29T12:24:56;100523.69;;;15.91;60.29
77263;BME280;66373;52.334;4.806;2023-12-29T12:27:25;100525.38;;;15.95;60.13
77263;BME280;66373;52.334;4.806;2023-12-29T12:29:53;100521.06;;;15.94;60.50
77263;BME280;66373;52.334;4.806;2023-12-29T12:32:25;100524.47;;;15.98;60.16
77263;BME280;66373;52.334;4.806;2023-12-29T12:34:54;100520.13;;;15.98;60.55
77263;BME280;66373;52.334;4.806;2023-12-29T12:37:22;100516.66;;;15.99;60.06
77263;BME280;66373;52.334;4.806;2023-12-29T12:39:49;100524.41;;;16.01;60.26
77263;BME280;66373;52.334;4.806;2023-12-29T12:42:18;100519.22;;;16.01;60.15
77263;BME280;66373;52.334;4.806;2023-12-29T12:44:53;100502.78;;;16.02;60.38
77263;BME280;66373;52.334;4.806;2023-12-29T12:47:27;100506.22;;;16.02;60.28
77263;BME280;66373;52.334;4.806;2023-12-29T12:49:59;100513.09;;;16.05;60.31
77263;BME280;66373;52.334;4.806;2023-12-29T12:52:30;100505.31;;;16.05;60.33
77263;BME280;66373;52.334;4.806;2023-12-29T12:54:57;100500.13;;;16.05;60.46
77263;BME280;66373;52.334;4.806;2023-12-29T12:57:25;100503.56;;;16.07;60.34